Saturday, February 24, 2018, 8:09 AM GMT
Back to Local

CWDQ, La Tuque

Location: , , Canada Lat: 47.417
Local Time: 8:09 AM GMT ( 8:09 GMT) Lon: -72.8
Time Zone: GMT Elev: 554 ft

Show me the last for .
Show Decoded

2018-02-24 07:00 METAR CWDQ 240700Z AUTO 14003KT M02/M03 RMK AO1 SOG 51 3002 SLP121 T10231032 =
2018-02-24 06:00 METAR CWDQ 240600Z AUTO 16004KT M02/M03 RMK AO1 SOG 51 5007 SLP118 T10241033
                 50020 =
2018-02-24 05:00 METAR CWDQ 240500Z AUTO 15002KT M03/M04 RMK AO1 SOG 51 6021 SLP116 T10281036
                 50020 =
2018-02-24 04:00 METAR CWDQ 240400Z AUTO 16004KT M03/M04 RMK AO1 SOG 51 6028 SLP120 T10291038
                 50020 =
2018-02-24 03:00 METAR CWDQ 240300Z AUTO 19003KT M04/M04 RMK AO1 SOG 51 8031 SLP128 T10371043
                 50020 =
2018-02-24 02:00 METAR CWDQ 240200Z AUTO 17003KT M04/M05 RMK AO1 0PAST HR SOG 51 8028 SLP141
                 P0008 T10431047 50020 =
2018-02-24 01:00 METAR CWDQ 240100Z AUTO 18004KT M04/M05 RMK AO1 SOG 50 6033 SLP152 T10351049 =
2018-02-24 00:00 METAR CWDQ 240000Z AUTO 16004KT M05/M05 RMK AO1 SOG 50 6049 SLP162 T10451053 =
2018-02-23 23:00 METAR CWDQ 232300Z AUTO 17007KT M04/M06 RMK AO1 SOG 50 6065 SLP171 T10441064 =
2018-02-23 22:00 METAR CWDQ 232200Z AUTO 17004KT M05/M07 RMK AO1 PRESFR SOG 49 8071 PK WND
                 17021/2112 SLP187 T10531074 =
2018-02-23 21:00 METAR CWDQ 232100Z AUTO 18008KT M03/M14 RMK AO1 PRESFR SOG 50 8069 SLP211
                 T10301137 =
2018-02-23 20:00 METAR CWDQ 232000Z AUTO 18005KT M03/M14 RMK AO1 PRESFR SOG 50 6082 SLP237
                 T10251139 =
2018-02-23 19:00 METAR CWDQ 231900Z AUTO 18007KT M03/M14 RMK AO1 PRESFR SOG 50 8077 SLP258
                 T10321142 =
2018-02-23 18:00 METAR CWDQ 231800Z AUTO 19007KT M04/M14 RMK AO1 PRESFR SOG 50 8081 SLP281
                 T10411138 =
2018-02-23 17:00 METAR CWDQ 231700Z AUTO 17008KT M05/M14 RMK AO1 SOG 50 8057 PK WND 17017/1648
                 SLP320 T10491139 =
2018-02-23 16:00 METAR CWDQ 231600Z AUTO 25001KT M09/M15 RMK AO1 PRESFR SOG 50 8054 SLP338
                 T10931149 =
2018-02-23 15:00 METAR CWDQ 231500Z AUTO 00000KT M14/M18 RMK AO1 SOG 50 8028 SLP366 T11411180 =
2018-02-23 14:00 METAR CWDQ 231400Z AUTO 00000KT M18/M20 RMK AO1 SOG 50 8023 SLP381 T11801198 =
2018-02-23 13:00 METAR CWDQ 231300Z AUTO 30001KT M20/M22 RMK AO1 SOG 50 6014 SLP395 T12011220 =
2018-02-23 12:00 METAR CWDQ 231200Z AUTO 00000KT M24/M27 RMK AO1 SOG 50 8019 SLP396 T12351268 =
2018-02-23 11:00 METAR CWDQ 231100Z AUTO 09001KT M24/M26 RMK AO1 SOG 50 8007 SLP405 T12391263 =
2018-02-23 10:00 METAR CWDQ 231000Z AUTO 00000KT M23/M26 RMK AO1 SOG 50 6011 SLP408 T12331256 =
2018-02-23 09:00 METAR CWDQ 230900Z AUTO 08001KT M21/M23 RMK AO1 SOG 50 5008 SLP413 T12091228 =

Support USWX by starting your Amazon purchase here.